sensor_id;sensor_type;location;lat;lon;timestamp;P1;durP1;ratioP1;P2;durP2;ratioP2
43676;SDS011;29275;48.800;18.102;2023-11-19T00:02:14;8.13;;;3.67;;
43676;SDS011;29275;48.800;18.102;2023-11-19T00:05:17;5.28;;;3.80;;
43676;SDS011;29275;48.800;18.102;2023-11-19T00:08:21;7.97;;;5.40;;
43676;SDS011;29275;48.800;18.102;2023-11-19T00:11:24;32.40;;;20.08;;
43676;SDS011;29275;48.800;18.102;2023-11-19T00:14:27;8.80;;;5.90;;
43676;SDS011;29275;48.800;18.102;2023-11-19T00:17:31;6.82;;;4.20;;
43676;SDS011;29275;48.800;18.102;2023-11-19T00:20:35;9.05;;;5.72;;
43676;SDS011;29275;48.800;18.102;2023-11-19T00:23:38;8.70;;;5.88;;
43676;SDS011;29275;48.800;18.102;2023-11-19T00:26:42;6.72;;;4.15;;
43676;SDS011;29275;48.800;18.102;2023-11-19T00:29:45;9.20;;;6.45;;
43676;SDS011;29275;48.800;18.102;2023-11-19T00:32:57;7.68;;;3.92;;
43676;SDS011;29275;48.800;18.102;2023-11-19T00:36:03;7.72;;;4.03;;
43676;SDS011;29275;48.800;18.102;2023-11-19T00:39:08;5.82;;;3.58;;
43676;SDS011;29275;48.800;18.102;2023-11-19T00:42:11;8.65;;;6.05;;
43676;SDS011;29275;48.800;18.102;2023-11-19T00:45:14;8.25;;;5.28;;
43676;SDS011;29275;48.800;18.102;2023-11-19T00:48:19;12.13;;;5.90;;
43676;SDS011;29275;48.800;18.102;2023-11-19T00:51:22;8.80;;;4.15;;
43676;SDS011;29275;48.800;18.102;2023-11-19T00:54:27;7.30;;;3.80;;
43676;SDS011;29275;48.800;18.102;2023-11-19T00:57:30;7.25;;;3.70;;
43676;SDS011;29275;48.800;18.102;2023-11-19T01:00:35;7.28;;;3.65;;
43676;SDS011;29275;48.800;18.102;2023-11-19T01:03:38;13.15;;;6.85;;
43676;SDS011;29275;48.800;18.102;2023-11-19T01:06:47;11.00;;;5.20;;
43676;SDS011;29275;48.800;18.102;2023-11-19T01:09:51;11.07;;;5.10;;
43676;SDS011;29275;48.800;18.102;2023-11-19T01:12:54;11.50;;;5.95;;
43676;SDS011;29275;48.800;18.102;2023-11-19T01:15:57;6.90;;;3.47;;
43676;SDS011;29275;48.800;18.102;2023-11-19T01:19:00;5.50;;;2.95;;
43676;SDS011;29275;48.800;18.102;2023-11-19T01:22:18;5.90;;;3.28;;
43676;SDS011;29275;48.800;18.102;2023-11-19T01:25:25;3.80;;;2.45;;
43676;SDS011;29275;48.800;18.102;2023-11-19T01:28:28;7.55;;;4.22;;
43676;SDS011;29275;48.800;18.102;2023-11-19T01:31:31;6.45;;;3.72;;
43676;SDS011;29275;48.800;18.102;2023-11-19T01:34:36;6.25;;;3.10;;
43676;SDS011;29275;48.800;18.102;2023-11-19T01:37:40;6.30;;;4.28;;
43676;SDS011;29275;48.800;18.102;2023-11-19T01:40:43;8.15;;;4.07;;
43676;SDS011;29275;48.800;18.102;2023-11-19T01:43:46;5.55;;;3.20;;
43676;SDS011;29275;48.800;18.102;2023-11-19T01:46:49;4.30;;;2.75;;
43676;SDS011;29275;48.800;18.102;2023-11-19T01:49:55;3.78;;;2.22;;
43676;SDS011;29275;48.800;18.102;2023-11-19T01:53:01;6.00;;;3.38;;
43676;SDS011;29275;48.800;18.102;2023-11-19T01:56:08;4.05;;;2.65;;
43676;SDS011;29275;48.800;18.102;2023-11-19T01:59:13;6.63;;;2.85;;
43676;SDS011;29275;48.800;18.102;2023-11-19T02:02:16;18.15;;;6.30;;
43676;SDS011;29275;48.800;18.102;2023-11-19T02:05:23;8.35;;;4.35;;
43676;SDS011;29275;48.800;18.102;2023-11-19T02:08:27;5.85;;;3.10;;
43676;SDS011;29275;48.800;18.102;2023-11-19T02:11:32;9.25;;;4.10;;
43676;SDS011;29275;48.800;18.102;2023-11-19T02:14:37;14.15;;;6.10;;
43676;SDS011;29275;48.800;18.102;2023-11-19T02:17:40;45.20;;;18.08;;
43676;SDS011;29275;48.800;18.102;2023-11-19T02:20:43;16.45;;;9.57;;
43676;SDS011;29275;48.800;18.102;2023-11-19T02:23:46;7.78;;;4.32;;
43676;SDS011;29275;48.800;18.102;2023-11-19T02:30:01;12.13;;;7.32;;
43676;SDS011;29275;48.800;18.102;2023-11-19T02:36:11;7.20;;;3.42;;
43676;SDS011;29275;48.800;18.102;2023-11-19T02:39:15;3.97;;;2.47;;
43676;SDS011;29275;48.800;18.102;2023-11-19T02:42:24;4.50;;;2.53;;
43676;SDS011;29275;48.800;18.102;2023-11-19T02:45:26;4.47;;;2.58;;
43676;SDS011;29275;48.800;18.102;2023-11-19T02:48:30;5.47;;;2.47;;
43676;SDS011;29275;48.800;18.102;2023-11-19T02:51:33;7.18;;;4.00;;
43676;SDS011;29275;48.800;18.102;2023-11-19T02:54:37;4.07;;;2.63;;
43676;SDS011;29275;48.800;18.102;2023-11-19T02:57:40;5.55;;;2.95;;
43676;SDS011;29275;48.800;18.102;2023-11-19T03:00:50;6.80;;;3.67;;
43676;SDS011;29275;48.800;18.102;2023-11-19T03:04:00;5.15;;;3.40;;
43676;SDS011;29275;48.800;18.102;2023-11-19T03:07:06;8.55;;;5.28;;
43676;SDS011;29275;48.800;18.102;2023-11-19T03:10:12;9.43;;;5.75;;
43676;SDS011;29275;48.800;18.102;2023-11-19T03:13:18;11.57;;;6.80;;
43676;SDS011;29275;48.800;18.102;2023-11-19T03:16:21;13.95;;;6.95;;
43676;SDS011;29275;48.800;18.102;2023-11-19T03:19:24;11.65;;;6.53;;
43676;SDS011;29275;48.800;18.102;2023-11-19T03:22:29;12.55;;;7.53;;
43676;SDS011;29275;48.800;18.102;2023-11-19T03:25:32;13.35;;;8.38;;
43676;SDS011;29275;48.800;18.102;2023-11-19T03:28:38;13.37;;;8.43;;
43676;SDS011;29275;48.800;18.102;2023-11-19T03:31:42;12.65;;;7.50;;
43676;SDS011;29275;48.800;18.102;2023-11-19T03:34:45;11.35;;;6.82;;
43676;SDS011;29275;48.800;18.102;2023-11-19T03:37:48;10.95;;;5.63;;
43676;SDS011;29275;48.800;18.102;2023-11-19T03:40:51;10.43;;;5.68;;
43676;SDS011;29275;48.800;18.102;2023-11-19T03:43:54;11.32;;;7.13;;
43676;SDS011;29275;48.800;18.102;2023-11-19T03:46:58;11.95;;;6.65;;
43676;SDS011;29275;48.800;18.102;2023-11-19T03:50:02;10.27;;;6.47;;
43676;SDS011;29275;48.800;18.102;2023-11-19T03:53:05;14.68;;;6.68;;
43676;SDS011;29275;48.800;18.102;2023-11-19T03:56:09;12.60;;;6.13;;
43676;SDS011;29275;48.800;18.102;2023-11-19T03:59:15;8.75;;;4.72;;
43676;SDS011;29275;48.800;18.102;2023-11-19T04:02:18;9.60;;;5.18;;
43676;SDS011;29275;48.800;18.102;2023-11-19T04:05:21;8.80;;;5.07;;
43676;SDS011;29275;48.800;18.102;2023-11-19T04:08:24;9.20;;;4.35;;
43676;SDS011;29275;48.800;18.102;2023-11-19T04:11:27;8.32;;;4.45;;
43676;SDS011;29275;48.800;18.102;2023-11-19T04:14:30;9.02;;;5.28;;
43676;SDS011;29275;48.800;18.102;2023-11-19T04:17:33;8.70;;;4.95;;
43676;SDS011;29275;48.800;18.102;2023-11-19T04:20:36;7.20;;;4.53;;
43676;SDS011;29275;48.800;18.102;2023-11-19T04:23:39;9.98;;;4.72;;
43676;SDS011;29275;48.800;18.102;2023-11-19T04:26:44;7.93;;;4.55;;
43676;SDS011;29275;48.800;18.102;2023-11-19T04:29:47;10.13;;;4.75;;
43676;SDS011;29275;48.800;18.102;2023-11-19T04:32:50;9.25;;;4.55;;
43676;SDS011;29275;48.800;18.102;2023-11-19T04:35:53;7.95;;;4.15;;
43676;SDS011;29275;48.800;18.102;2023-11-19T04:38:56;5.20;;;3.47;;
43676;SDS011;29275;48.800;18.102;2023-11-19T04:41:59;6.72;;;4.03;;
43676;SDS011;29275;48.800;18.102;2023-11-19T04:45:02;6.88;;;3.97;;
43676;SDS011;29275;48.800;18.102;2023-11-19T04:48:08;7.18;;;4.00;;
43676;SDS011;29275;48.800;18.102;2023-11-19T04:51:11;7.97;;;4.53;;
43676;SDS011;29275;48.800;18.102;2023-11-19T04:54:14;7.68;;;4.22;;
43676;SDS011;29275;48.800;18.102;2023-11-19T04:57:17;8.35;;;4.22;;
43676;SDS011;29275;48.800;18.102;2023-11-19T05:00:20;8.43;;;4.20;;
43676;SDS011;29275;48.800;18.102;2023-11-19T05:03:25;7.00;;;3.83;;
43676;SDS011;29275;48.800;18.102;2023-11-19T05:06:29;7.85;;;4.05;;
43676;SDS011;29275;48.800;18.102;2023-11-19T05:09:33;5.28;;;3.13;;
43676;SDS011;29275;48.800;18.102;2023-11-19T05:12:36;5.10;;;3.13;;
43676;SDS011;29275;48.800;18.102;2023-11-19T05:15:39;6.28;;;3.45;;
43676;SDS011;29275;48.800;18.102;2023-11-19T05:18:42;6.35;;;3.00;;
43676;SDS011;29275;48.800;18.102;2023-11-19T05:21:45;5.18;;;3.15;;
43676;SDS011;29275;48.800;18.102;2023-11-19T05:24:48;5.25;;;2.92;;
43676;SDS011;29275;48.800;18.102;2023-11-19T05:27:52;5.18;;;3.15;;
43676;SDS011;29275;48.800;18.102;2023-11-19T05:30:54;7.85;;;3.38;;
43676;SDS011;29275;48.800;18.102;2023-11-19T05:33:58;6.50;;;3.80;;
43676;SDS011;29275;48.800;18.102;2023-11-19T05:37:01;9.90;;;5.38;;
43676;SDS011;29275;48.800;18.102;2023-11-19T05:40:06;11.25;;;6.75;;
43676;SDS011;29275;48.800;18.102;2023-11-19T05:43:17;13.95;;;7.70;;
43676;SDS011;29275;48.800;18.102;2023-11-19T05:46:20;15.25;;;7.38;;
43676;SDS011;29275;48.800;18.102;2023-11-19T05:49:24;17.40;;;9.15;;
43676;SDS011;29275;48.800;18.102;2023-11-19T05:52:26;16.98;;;9.75;;
43676;SDS011;29275;48.800;18.102;2023-11-19T05:55:30;16.63;;;9.60;;
43676;SDS011;29275;48.800;18.102;2023-11-19T05:58:34;15.20;;;8.20;;
43676;SDS011;29275;48.800;18.102;2023-11-19T06:01:37;15.00;;;9.07;;
43676;SDS011;29275;48.800;18.102;2023-11-19T06:04:40;16.38;;;10.57;;
43676;SDS011;29275;48.800;18.102;2023-11-19T06:07:46;16.48;;;9.90;;
43676;SDS011;29275;48.800;18.102;2023-11-19T06:10:50;13.88;;;8.13;;
43676;SDS011;29275;48.800;18.102;2023-11-19T06:13:54;13.65;;;7.07;;
43676;SDS011;29275;48.800;18.102;2023-11-19T06:16:57;13.35;;;7.07;;
43676;SDS011;29275;48.800;18.102;2023-11-19T06:20:00;10.98;;;5.55;;
43676;SDS011;29275;48.800;18.102;2023-11-19T06:23:03;11.55;;;6.82;;
43676;SDS011;29275;48.800;18.102;2023-11-19T06:26:06;12.98;;;7.18;;
43676;SDS011;29275;48.800;18.102;2023-11-19T06:29:09;21.85;;;11.18;;
43676;SDS011;29275;48.800;18.102;2023-11-19T06:32:12;12.32;;;7.15;;
43676;SDS011;29275;48.800;18.102;2023-11-19T06:35:16;12.10;;;6.80;;
43676;SDS011;29275;48.800;18.102;2023-11-19T06:38:19;9.35;;;5.75;;
43676;SDS011;29275;48.800;18.102;2023-11-19T06:41:22;12.05;;;5.75;;
43676;SDS011;29275;48.800;18.102;2023-11-19T06:44:25;8.55;;;5.05;;
43676;SDS011;29275;48.800;18.102;2023-11-19T06:47:31;10.25;;;6.20;;
43676;SDS011;29275;48.800;18.102;2023-11-19T06:50:35;10.25;;;5.35;;
43676;SDS011;29275;48.800;18.102;2023-11-19T06:53:39;12.40;;;7.30;;
43676;SDS011;29275;48.800;18.102;2023-11-19T06:56:47;14.90;;;8.45;;
43676;SDS011;29275;48.800;18.102;2023-11-19T06:59:51;12.52;;;7.97;;
43676;SDS011;29275;48.800;18.102;2023-11-19T07:02:55;11.15;;;6.55;;
43676;SDS011;29275;48.800;18.102;2023-11-19T07:05:58;11.90;;;6.68;;
43676;SDS011;29275;48.800;18.102;2023-11-19T07:09:02;10.52;;;6.18;;
43676;SDS011;29275;48.800;18.102;2023-11-19T07:12:16;17.40;;;8.52;;
43676;SDS011;29275;48.800;18.102;2023-11-19T07:15:19;13.95;;;8.40;;
43676;SDS011;29275;48.800;18.102;2023-11-19T07:18:22;14.38;;;8.30;;
43676;SDS011;29275;48.800;18.102;2023-11-19T07:21:25;11.75;;;6.85;;
43676;SDS011;29275;48.800;18.102;2023-11-19T07:24:30;13.60;;;7.47;;
43676;SDS011;29275;48.800;18.102;2023-11-19T07:27:33;14.23;;;7.18;;
43676;SDS011;29275;48.800;18.102;2023-11-19T07:30:37;12.75;;;7.90;;
43676;SDS011;29275;48.800;18.102;2023-11-19T07:33:40;17.63;;;8.80;;
43676;SDS011;29275;48.800;18.102;2023-11-19T07:36:46;16.80;;;10.57;;
43676;SDS011;29275;48.800;18.102;2023-11-19T07:39:50;16.00;;;9.85;;
43676;SDS011;29275;48.800;18.102;2023-11-19T07:42:53;23.48;;;12.20;;
43676;SDS011;29275;48.800;18.102;2023-11-19T07:45:58;19.75;;;10.55;;
43676;SDS011;29275;48.800;18.102;2023-11-19T07:49:01;15.55;;;9.55;;
43676;SDS011;29275;48.800;18.102;2023-11-19T07:52:05;15.63;;;9.82;;
43676;SDS011;29275;48.800;18.102;2023-11-19T07:58:26;21.17;;;10.70;;
43676;SDS011;29275;48.800;18.102;2023-11-19T08:01:29;18.70;;;10.50;;
43676;SDS011;29275;48.800;18.102;2023-11-19T08:04:36;19.50;;;9.15;;
43676;SDS011;29275;48.800;18.102;2023-11-19T08:07:39;22.92;;;13.20;;
43676;SDS011;29275;48.800;18.102;2023-11-19T08:10:42;19.52;;;10.82;;
43676;SDS011;29275;48.800;18.102;2023-11-19T08:13:47;15.70;;;8.95;;
43676;SDS011;29275;48.800;18.102;2023-11-19T08:16:51;19.25;;;10.48;;
43676;SDS011;29275;48.800;18.102;2023-11-19T08:19:54;20.55;;;11.02;;
43676;SDS011;29275;48.800;18.102;2023-11-19T08:22:57;21.85;;;12.07;;
43676;SDS011;29275;48.800;18.102;2023-11-19T08:26:00;19.02;;;11.40;;
43676;SDS011;29275;48.800;18.102;2023-11-19T08:29:07;22.50;;;12.77;;
43676;SDS011;29275;48.800;18.102;2023-11-19T08:32:12;26.63;;;13.95;;
43676;SDS011;29275;48.800;18.102;2023-11-19T08:35:16;21.08;;;11.70;;
43676;SDS011;29275;48.800;18.102;2023-11-19T08:38:20;19.70;;;10.73;;
43676;SDS011;29275;48.800;18.102;2023-11-19T08:41:27;19.73;;;10.38;;
43676;SDS011;29275;48.800;18.102;2023-11-19T08:44:32;17.75;;;10.73;;
43676;SDS011;29275;48.800;18.102;2023-11-19T08:47:37;14.77;;;8.77;;
43676;SDS011;29275;48.800;18.102;2023-11-19T08:50:40;15.23;;;9.63;;
43676;SDS011;29275;48.800;18.102;2023-11-19T08:53:44;14.80;;;8.60;;
43676;SDS011;29275;48.800;18.102;2023-11-19T08:56:47;12.73;;;8.27;;
43676;SDS011;29275;48.800;18.102;2023-11-19T08:59:51;15.38;;;9.30;;
43676;SDS011;29275;48.800;18.102;2023-11-19T09:02:54;16.00;;;9.02;;
43676;SDS011;29275;48.800;18.102;2023-11-19T09:05:59;17.30;;;9.35;;
43676;SDS011;29275;48.800;18.102;2023-11-19T09:09:03;15.95;;;9.43;;
43676;SDS011;29275;48.800;18.102;2023-11-19T09:12:08;15.48;;;8.48;;
43676;SDS011;29275;48.800;18.102;2023-11-19T09:15:11;18.38;;;10.85;;
43676;SDS011;29275;48.800;18.102;2023-11-19T09:18:14;16.27;;;9.38;;
43676;SDS011;29275;48.800;18.102;2023-11-19T09:21:17;17.23;;;10.05;;
43676;SDS011;29275;48.800;18.102;2023-11-19T09:24:22;19.08;;;9.93;;
43676;SDS011;29275;48.800;18.102;2023-11-19T09:27:25;15.73;;;8.75;;
43676;SDS011;29275;48.800;18.102;2023-11-19T09:30:29;18.55;;;11.02;;
43676;SDS011;29275;48.800;18.102;2023-11-19T09:33:32;19.27;;;11.23;;
43676;SDS011;29275;48.800;18.102;2023-11-19T09:36:39;24.67;;;11.82;;
43676;SDS011;29275;48.800;18.102;2023-11-19T09:39:46;17.83;;;10.25;;
43676;SDS011;29275;48.800;18.102;2023-11-19T09:42:49;20.75;;;11.00;;
43676;SDS011;29275;48.800;18.102;2023-11-19T09:45:56;21.57;;;11.03;;
43676;SDS011;29275;48.800;18.102;2023-11-19T09:49:02;22.42;;;11.75;;
43676;SDS011;29275;48.800;18.102;2023-11-19T09:52:07;21.08;;;12.48;;
43676;SDS011;29275;48.800;18.102;2023-11-19T09:55:10;26.02;;;12.00;;
43676;SDS011;29275;48.800;18.102;2023-11-19T09:58:13;22.50;;;12.68;;
43676;SDS011;29275;48.800;18.102;2023-11-19T10:01:18;26.42;;;13.25;;
43676;SDS011;29275;48.800;18.102;2023-11-19T10:04:30;21.15;;;10.48;;
43676;SDS011;29275;48.800;18.102;2023-11-19T10:07:35;22.63;;;12.60;;
43676;SDS011;29275;48.800;18.102;2023-11-19T10:10:42;25.27;;;13.15;;
43676;SDS011;29275;48.800;18.102;2023-11-19T10:13:46;22.73;;;11.13;;
43676;SDS011;29275;48.800;18.102;2023-11-19T10:16:51;23.38;;;12.93;;
43676;SDS011;29275;48.800;18.102;2023-11-19T10:19:54;20.10;;;12.25;;
43676;SDS011;29275;48.800;18.102;2023-11-19T10:22:59;21.02;;;11.15;;
43676;SDS011;29275;48.800;18.102;2023-11-19T10:26:03;20.42;;;12.20;;
43676;SDS011;29275;48.800;18.102;2023-11-19T10:29:12;19.50;;;11.05;;
43676;SDS011;29275;48.800;18.102;2023-11-19T10:32:18;21.77;;;10.85;;
43676;SDS011;29275;48.800;18.102;2023-11-19T10:35:28;19.65;;;10.93;;
43676;SDS011;29275;48.800;18.102;2023-11-19T10:38:31;17.23;;;10.93;;
43676;SDS011;29275;48.800;18.102;2023-11-19T10:41:39;19.55;;;10.70;;
43676;SDS011;29275;48.800;18.102;2023-11-19T10:44:43;21.10;;;11.65;;
43676;SDS011;29275;48.800;18.102;2023-11-19T10:47:51;15.50;;;10.15;;
43676;SDS011;29275;48.800;18.102;2023-11-19T10:50:59;20.45;;;11.43;;
43676;SDS011;29275;48.800;18.102;2023-11-19T10:54:04;17.00;;;9.85;;
43676;SDS011;29275;48.800;18.102;2023-11-19T10:57:12;18.10;;;10.90;;
43676;SDS011;29275;48.800;18.102;2023-11-19T11:00:29;16.45;;;9.82;;
43676;SDS011;29275;48.800;18.102;2023-11-19T11:03:39;19.00;;;10.00;;
43676;SDS011;29275;48.800;18.102;2023-11-19T11:06:46;16.52;;;10.13;;
43676;SDS011;29275;48.800;18.102;2023-11-19T11:09:51;19.63;;;10.13;;
43676;SDS011;29275;48.800;18.102;2023-11-19T11:12:54;16.52;;;9.13;;
43676;SDS011;29275;48.800;18.102;2023-11-19T11:16:04;16.38;;;9.25;;
43676;SDS011;29275;48.800;18.102;2023-11-19T11:19:11;12.60;;;8.10;;
43676;SDS011;29275;48.800;18.102;2023-11-19T11:22:15;19.77;;;10.70;;
43676;SDS011;29275;48.800;18.102;2023-11-19T11:29:09;17.55;;;9.40;;
43676;SDS011;29275;48.800;18.102;2023-11-19T11:32:51;18.38;;;10.38;;
43676;SDS011;29275;48.800;18.102;2023-11-19T11:36:14;18.35;;;10.60;;
43676;SDS011;29275;48.800;18.102;2023-11-19T11:39:21;15.32;;;8.75;;
43676;SDS011;29275;48.800;18.102;2023-11-19T11:45:35;15.80;;;9.15;;
43676;SDS011;29275;48.800;18.102;2023-11-19T11:48:49;15.15;;;9.02;;
43676;SDS011;29275;48.800;18.102;2023-11-19T11:51:59;17.10;;;9.38;;
43676;SDS011;29275;48.800;18.102;2023-11-19T11:55:06;15.75;;;9.18;;
43676;SDS011;29275;48.800;18.102;2023-11-19T12:01:59;15.18;;;9.13;;
43676;SDS011;29275;48.800;18.102;2023-11-19T12:05:03;12.07;;;7.10;;
43676;SDS011;29275;48.800;18.102;2023-11-19T12:08:10;15.00;;;8.57;;
43676;SDS011;29275;48.800;18.102;2023-11-19T12:11:17;13.82;;;8.40;;
43676;SDS011;29275;48.800;18.102;2023-11-19T12:18:02;14.13;;;7.40;;
43676;SDS011;29275;48.800;18.102;2023-11-19T12:21:08;16.67;;;8.25;;
43676;SDS011;29275;48.800;18.102;2023-11-19T12:24:13;20.17;;;10.30;;
43676;SDS011;29275;48.800;18.102;2023-11-19T12:27:17;14.45;;;8.43;;
43676;SDS011;29275;48.800;18.102;2023-11-19T12:30:24;12.82;;;8.18;;
43676;SDS011;29275;48.800;18.102;2023-11-19T12:33:30;11.00;;;7.10;;
43676;SDS011;29275;48.800;18.102;2023-11-19T12:36:33;13.70;;;8.77;;
43676;SDS011;29275;48.800;18.102;2023-11-19T12:39:37;12.98;;;7.68;;
43676;SDS011;29275;48.800;18.102;2023-11-19T12:42:41;11.55;;;8.02;;
43676;SDS011;29275;48.800;18.102;2023-11-19T12:45:44;16.90;;;8.68;;
43676;SDS011;29275;48.800;18.102;2023-11-19T12:48:48;13.45;;;7.50;;
43676;SDS011;29275;48.800;18.102;2023-11-19T12:51:51;20.30;;;10.57;;
43676;SDS011;29275;48.800;18.102;2023-11-19T12:54:54;13.90;;;7.78;;
43676;SDS011;29275;48.800;18.102;2023-11-19T12:57:58;16.77;;;10.13;;
43676;SDS011;29275;48.800;18.102;2023-11-19T13:01:02;20.15;;;11.45;;
43676;SDS011;29275;48.800;18.102;2023-11-19T13:04:17;16.88;;;10.10;;
43676;SDS011;29275;48.800;18.102;2023-11-19T13:07:21;15.93;;;9.40;;
43676;SDS011;29275;48.800;18.102;2023-11-19T13:10:28;20.80;;;11.68;;
43676;SDS011;29275;48.800;18.102;2023-11-19T13:13:49;25.20;;;13.40;;
43676;SDS011;29275;48.800;18.102;2023-11-19T13:16:56;19.25;;;11.27;;
43676;SDS011;29275;48.800;18.102;2023-11-19T13:20:07;13.38;;;8.10;;
43676;SDS011;29275;48.800;18.102;2023-11-19T13:23:11;16.55;;;9.30;;
43676;SDS011;29275;48.800;18.102;2023-11-19T13:26:14;16.08;;;9.10;;
43676;SDS011;29275;48.800;18.102;2023-11-19T13:29:17;14.60;;;8.80;;
43676;SDS011;29275;48.800;18.102;2023-11-19T13:32:22;15.15;;;8.80;;
43676;SDS011;29275;48.800;18.102;2023-11-19T13:35:25;14.90;;;8.80;;
43676;SDS011;29275;48.800;18.102;2023-11-19T13:38:31;16.23;;;9.05;;
43676;SDS011;29275;48.800;18.102;2023-11-19T13:41:39;11.20;;;7.25;;
43676;SDS011;29275;48.800;18.102;2023-11-19T13:44:43;14.75;;;8.18;;
43676;SDS011;29275;48.800;18.102;2023-11-19T13:47:46;15.98;;;8.98;;
43676;SDS011;29275;48.800;18.102;2023-11-19T13:50:49;15.35;;;8.48;;
43676;SDS011;29275;48.800;18.102;2023-11-19T13:53:52;18.35;;;9.40;;
43676;SDS011;29275;48.800;18.102;2023-11-19T13:56:55;20.77;;;11.05;;
43676;SDS011;29275;48.800;18.102;2023-11-19T14:00:01;30.98;;;13.73;;
43676;SDS011;29275;48.800;18.102;2023-11-19T14:03:09;25.98;;;13.63;;
43676;SDS011;29275;48.800;18.102;2023-11-19T14:06:16;19.10;;;11.50;;
43676;SDS011;29275;48.800;18.102;2023-11-19T14:09:19;23.25;;;13.05;;
43676;SDS011;29275;48.800;18.102;2023-11-19T14:12:22;21.58;;;11.68;;
43676;SDS011;29275;48.800;18.102;2023-11-19T14:15:25;18.85;;;10.48;;
43676;SDS011;29275;48.800;18.102;2023-11-19T14:18:29;17.40;;;10.35;;
43676;SDS011;29275;48.800;18.102;2023-11-19T14:21:32;19.52;;;12.52;;
43676;SDS011;29275;48.800;18.102;2023-11-19T14:24:36;20.35;;;12.23;;
43676;SDS011;29275;48.800;18.102;2023-11-19T14:27:40;26.77;;;13.02;;
43676;SDS011;29275;48.800;18.102;2023-11-19T14:30:44;24.00;;;13.30;;
43676;SDS011;29275;48.800;18.102;2023-11-19T14:33:48;25.90;;;14.02;;
43676;SDS011;29275;48.800;18.102;2023-11-19T14:36:52;18.45;;;10.55;;
43676;SDS011;29275;48.800;18.102;2023-11-19T14:39:56;22.08;;;10.88;;
43676;SDS011;29275;48.800;18.102;2023-11-19T14:43:03;15.05;;;8.82;;
43676;SDS011;29275;48.800;18.102;2023-11-19T14:46:12;18.63;;;11.13;;
43676;SDS011;29275;48.800;18.102;2023-11-19T14:49:15;18.80;;;10.75;;
43676;SDS011;29275;48.800;18.102;2023-11-19T14:52:18;15.75;;;9.27;;
43676;SDS011;29275;48.800;18.102;2023-11-19T14:55:21;18.50;;;11.30;;
43676;SDS011;29275;48.800;18.102;2023-11-19T15:01:40;18.30;;;9.95;;
43676;SDS011;29275;48.800;18.102;2023-11-19T15:04:46;19.02;;;11.57;;
43676;SDS011;29275;48.800;18.102;2023-11-19T15:07:53;17.48;;;9.85;;
43676;SDS011;29275;48.800;18.102;2023-11-19T15:10:56;19.17;;;11.95;;
43676;SDS011;29275;48.800;18.102;2023-11-19T15:14:04;18.02;;;10.20;;
43676;SDS011;29275;48.800;18.102;2023-11-19T15:17:27;20.50;;;11.70;;
43676;SDS011;29275;48.800;18.102;2023-11-19T15:20:33;20.60;;;12.77;;
43676;SDS011;29275;48.800;18.102;2023-11-19T15:23:36;23.77;;;12.63;;
43676;SDS011;29275;48.800;18.102;2023-11-19T15:26:39;20.63;;;10.65;;
43676;SDS011;29275;48.800;18.102;2023-11-19T15:29:42;18.20;;;10.57;;
43676;SDS011;29275;48.800;18.102;2023-11-19T15:32:50;18.15;;;10.57;;
43676;SDS011;29275;48.800;18.102;2023-11-19T15:35:54;17.60;;;10.65;;
43676;SDS011;29275;48.800;18.102;2023-11-19T15:38:57;21.02;;;12.55;;
43676;SDS011;29275;48.800;18.102;2023-11-19T15:42:00;22.85;;;12.80;;
43676;SDS011;29275;48.800;18.102;2023-11-19T15:45:09;23.98;;;13.95;;
43676;SDS011;29275;48.800;18.102;2023-11-19T15:48:12;23.15;;;13.13;;
43676;SDS011;29275;48.800;18.102;2023-11-19T15:51:18;26.43;;;14.20;;
43676;SDS011;29275;48.800;18.102;2023-11-19T15:54:23;23.17;;;13.05;;
43676;SDS011;29275;48.800;18.102;2023-11-19T15:57:26;19.70;;;10.35;;
43676;SDS011;29275;48.800;18.102;2023-11-19T16:00:29;22.73;;;12.15;;
43676;SDS011;29275;48.800;18.102;2023-11-19T16:03:32;20.42;;;13.20;;
43676;SDS011;29275;48.800;18.102;2023-11-19T16:06:54;28.80;;;15.20;;
43676;SDS011;29275;48.800;18.102;2023-11-19T16:09:57;20.88;;;13.85;;
43676;SDS011;29275;48.800;18.102;2023-11-19T16:13:02;26.95;;;14.40;;
43676;SDS011;29275;48.800;18.102;2023-11-19T16:16:06;24.88;;;13.85;;
43676;SDS011;29275;48.800;18.102;2023-11-19T16:19:12;33.17;;;17.25;;
43676;SDS011;29275;48.800;18.102;2023-11-19T16:22:15;26.65;;;15.10;;
43676;SDS011;29275;48.800;18.102;2023-11-19T16:25:18;22.10;;;13.75;;
43676;SDS011;29275;48.800;18.102;2023-11-19T16:28:22;21.02;;;12.32;;
43676;SDS011;29275;48.800;18.102;2023-11-19T16:31:26;21.95;;;11.73;;
43676;SDS011;29275;48.800;18.102;2023-11-19T16:34:29;23.40;;;11.18;;
43676;SDS011;29275;48.800;18.102;2023-11-19T16:37:32;18.17;;;10.50;;
43676;SDS011;29275;48.800;18.102;2023-11-19T16:40:37;17.90;;;10.85;;
43676;SDS011;29275;48.800;18.102;2023-11-19T16:43:45;23.30;;;11.65;;
43676;SDS011;29275;48.800;18.102;2023-11-19T16:46:48;23.77;;;13.27;;
43676;SDS011;29275;48.800;18.102;2023-11-19T16:49:52;25.65;;;13.55;;
43676;SDS011;29275;48.800;18.102;2023-11-19T16:52:55;17.63;;;10.48;;
43676;SDS011;29275;48.800;18.102;2023-11-19T16:55:58;18.73;;;10.80;;
43676;SDS011;29275;48.800;18.102;2023-11-19T16:59:01;14.95;;;9.27;;
43676;SDS011;29275;48.800;18.102;2023-11-19T17:02:05;21.15;;;11.40;;
43676;SDS011;29275;48.800;18.102;2023-11-19T17:05:09;17.10;;;9.77;;
43676;SDS011;29275;48.800;18.102;2023-11-19T17:08:12;18.98;;;11.20;;
43676;SDS011;29275;48.800;18.102;2023-11-19T17:12:02;22.98;;;11.75;;
43676;SDS011;29275;48.800;18.102;2023-11-19T17:15:06;21.85;;;11.98;;
43676;SDS011;29275;48.800;18.102;2023-11-19T17:18:12;21.55;;;12.43;;
43676;SDS011;29275;48.800;18.102;2023-11-19T17:21:16;25.60;;;12.07;;
43676;SDS011;29275;48.800;18.102;2023-11-19T17:24:22;22.42;;;12.13;;
43676;SDS011;29275;48.800;18.102;2023-11-19T17:27:26;19.30;;;12.27;;
43676;SDS011;29275;48.800;18.102;2023-11-19T17:30:30;22.02;;;12.20;;
43676;SDS011;29275;48.800;18.102;2023-11-19T17:33:33;22.48;;;12.75;;
43676;SDS011;29275;48.800;18.102;2023-11-19T17:36:37;23.25;;;11.95;;
43676;SDS011;29275;48.800;18.102;2023-11-19T17:39:41;20.10;;;11.90;;
43676;SDS011;29275;48.800;18.102;2023-11-19T17:42:47;17.77;;;10.27;;
43676;SDS011;29275;48.800;18.102;2023-11-19T17:45:57;18.85;;;10.90;;
43676;SDS011;29275;48.800;18.102;2023-11-19T17:49:03;16.88;;;10.45;;
43676;SDS011;29275;48.800;18.102;2023-11-19T17:52:06;17.05;;;9.73;;
43676;SDS011;29275;48.800;18.102;2023-11-19T17:55:10;19.08;;;10.82;;
43676;SDS011;29275;48.800;18.102;2023-11-19T17:58:15;24.52;;;14.23;;
43676;SDS011;29275;48.800;18.102;2023-11-19T18:01:25;30.45;;;18.38;;
43676;SDS011;29275;48.800;18.102;2023-11-19T18:04:31;27.48;;;15.30;;
43676;SDS011;29275;48.800;18.102;2023-11-19T18:07:34;26.35;;;15.52;;
43676;SDS011;29275;48.800;18.102;2023-11-19T18:10:37;27.20;;;13.88;;
43676;SDS011;29275;48.800;18.102;2023-11-19T18:13:41;26.58;;;14.23;;
43676;SDS011;29275;48.800;18.102;2023-11-19T18:16:44;33.92;;;17.65;;
43676;SDS011;29275;48.800;18.102;2023-11-19T18:19:51;30.15;;;16.02;;
43676;SDS011;29275;48.800;18.102;2023-11-19T18:22:54;26.27;;;16.02;;
43676;SDS011;29275;48.800;18.102;2023-11-19T18:25:58;28.48;;;15.82;;